sensor_id;sensor_type;location;lat;lon;timestamp;pressure;altitude;pressure_sealevel;temperature;humidity
8318;BME280;4196;48.926;8.964;2023-04-04T00:00:56;99950.44;;;-0.36;74.51
8318;BME280;4196;48.926;8.964;2023-04-04T00:03:42;99938.06;;;-0.45;73.69
8318;BME280;4196;48.926;8.964;2023-04-04T00:06:29;99953.16;;;-0.48;75.08
8318;BME280;4196;48.926;8.964;2023-04-04T00:09:15;99945.72;;;-0.60;75.61
8318;BME280;4196;48.926;8.964;2023-04-04T00:12:03;99937.69;;;-0.82;76.41
8318;BME280;4196;48.926;8.964;2023-04-04T00:14:49;99923.31;;;-0.97;78.51
8318;BME280;4196;48.926;8.964;2023-04-04T00:17:36;99937.69;;;-0.97;78.58
8318;BME280;4196;48.926;8.964;2023-04-04T00:20:23;99934.91;;;-1.02;80.15
8318;BME280;4196;48.926;8.964;2023-04-04T00:23:09;99929.63;;;-1.05;78.47
8318;BME280;4196;48.926;8.964;2023-04-04T00:25:56;99909.66;;;-1.13;79.87
8318;BME280;4196;48.926;8.964;2023-04-04T00:28:42;99929.28;;;-0.96;81.17
8318;BME280;4196;48.926;8.964;2023-04-04T00:31:33;99927.47;;;-1.13;80.15
8318;BME280;4196;48.926;8.964;2023-04-04T00:34:20;99921.38;;;-1.30;81.49
8318;BME280;4196;48.926;8.964;2023-04-04T00:37:06;99922.78;;;-1.35;82.09
8318;BME280;4196;48.926;8.964;2023-04-04T00:39:54;99924.47;;;-1.36;81.98
8318;BME280;4196;48.926;8.964;2023-04-04T00:42:40;99919.47;;;-1.34;81.87
8318;BME280;4196;48.926;8.964;2023-04-04T00:45:27;99915.25;;;-1.34;82.73
8318;BME280;4196;48.926;8.964;2023-04-04T00:48:14;99911.09;;;-1.61;83.52
8318;BME280;4196;48.926;8.964;2023-04-04T00:51:00;99917.88;;;-1.47;82.60
8318;BME280;4196;48.926;8.964;2023-04-04T00:53:49;99895.06;;;-1.60;83.05
8318;BME280;4196;48.926;8.964;2023-04-04T00:56:37;99919.09;;;-1.26;80.79
8318;BME280;4196;48.926;8.964;2023-04-04T00:59:25;99901.41;;;-1.39;80.56
8318;BME280;4196;48.926;8.964;2023-04-04T01:02:15;99905.69;;;-1.38;80.25
8318;BME280;4196;48.926;8.964;2023-04-04T01:05:02;99910.78;;;-1.38;80.54
8318;BME280;4196;48.926;8.964;2023-04-04T01:07:49;99904.19;;;-1.49;81.00
8318;BME280;4196;48.926;8.964;2023-04-04T01:10:36;99899.53;;;-1.56;81.84
8318;BME280;4196;48.926;8.964;2023-04-04T01:13:22;99903.50;;;-1.61;81.94
8318;BME280;4196;48.926;8.964;2023-04-04T01:16:11;99910.91;;;-1.64;82.81
8318;BME280;4196;48.926;8.964;2023-04-04T01:18:57;99908.19;;;-1.67;83.34
8318;BME280;4196;48.926;8.964;2023-04-04T01:21:45;99910.91;;;-1.64;83.15
8318;BME280;4196;48.926;8.964;2023-04-04T01:24:36;99906.31;;;-1.42;81.76
8318;BME280;4196;48.926;8.964;2023-04-04T01:27:24;99906.81;;;-1.48;81.20
8318;BME280;4196;48.926;8.964;2023-04-04T01:30:17;99896.06;;;-1.43;80.43
8318;BME280;4196;48.926;8.964;2023-04-04T01:33:08;99903.00;;;-1.26;79.94
8318;BME280;4196;48.926;8.964;2023-04-04T01:36:16;99904.47;;;-1.44;80.66
8318;BME280;4196;48.926;8.964;2023-04-04T01:39:09;99878.28;;;-1.58;80.98
8318;BME280;4196;48.926;8.964;2023-04-04T01:42:01;99904.00;;;-1.52;81.08
8318;BME280;4196;48.926;8.964;2023-04-04T01:44:56;99892.47;;;-1.47;81.06
8318;BME280;4196;48.926;8.964;2023-04-04T01:47:48;99889.16;;;-1.46;80.56
8318;BME280;4196;48.926;8.964;2023-04-04T01:50:38;99889.19;;;-1.59;80.87
8318;BME280;4196;48.926;8.964;2023-04-04T01:53:26;99879.03;;;-1.59;81.24
8318;BME280;4196;48.926;8.964;2023-04-04T01:56:13;99885.63;;;-1.48;80.52
8318;BME280;4196;48.926;8.964;2023-04-04T01:59:00;99888.78;;;-1.52;80.47
8318;BME280;4196;48.926;8.964;2023-04-04T02:01:47;99878.00;;;-1.63;80.83
8318;BME280;4196;48.926;8.964;2023-04-04T02:04:33;99884.38;;;-1.55;80.95
8318;BME280;4196;48.926;8.964;2023-04-04T02:07:20;99881.16;;;-1.52;80.90
8318;BME280;4196;48.926;8.964;2023-04-04T02:10:07;99800.56;;;-1.99;80.83
8318;BME280;4196;48.926;8.964;2023-04-04T02:12:54;99884.06;;;-1.46;79.89
8318;BME280;4196;48.926;8.964;2023-04-04T02:15:41;99890.06;;;-1.59;80.36
8318;BME280;4196;48.926;8.964;2023-04-04T02:18:28;99893.66;;;-1.55;80.81
8318;BME280;4196;48.926;8.964;2023-04-04T02:21:15;99892.78;;;-1.71;81.69
8318;BME280;4196;48.926;8.964;2023-04-04T02:24:01;99889.09;;;-1.76;82.14
8318;BME280;4196;48.926;8.964;2023-04-04T02:26:48;99892.34;;;-1.91;83.56
8318;BME280;4196;48.926;8.964;2023-04-04T02:29:34;99886.75;;;-2.01;85.47
8318;BME280;4196;48.926;8.964;2023-04-04T02:32:22;99892.09;;;-1.96;84.40
8318;BME280;4196;48.926;8.964;2023-04-04T02:35:10;99890.84;;;-2.03;87.70
8318;BME280;4196;48.926;8.964;2023-04-04T02:37:56;99888.63;;;-2.11;87.19
8318;BME280;4196;48.926;8.964;2023-04-04T02:40:52;99886.13;;;-2.25;89.10
8318;BME280;4196;48.926;8.964;2023-04-04T02:43:39;99883.13;;;-2.32;90.50
8318;BME280;4196;48.926;8.964;2023-04-04T02:46:27;99889.56;;;-2.37;92.69
8318;BME280;4196;48.926;8.964;2023-04-04T02:49:20;99893.84;;;-2.23;92.39
8318;BME280;4196;48.926;8.964;2023-04-04T02:52:08;99888.03;;;-2.35;90.74
8318;BME280;4196;48.926;8.964;2023-04-04T02:54:59;99885.69;;;-2.46;90.79
8318;BME280;4196;48.926;8.964;2023-04-04T02:57:53;99881.38;;;-2.33;90.02
8318;BME280;4196;48.926;8.964;2023-04-04T03:00:39;99876.44;;;-2.45;89.25
8318;BME280;4196;48.926;8.964;2023-04-04T03:03:26;99882.06;;;-2.36;89.28
8318;BME280;4196;48.926;8.964;2023-04-04T03:06:13;99874.16;;;-2.40;88.98
8318;BME280;4196;48.926;8.964;2023-04-04T03:09:00;99877.50;;;-2.41;89.72
8318;BME280;4196;48.926;8.964;2023-04-04T03:11:49;99867.16;;;-2.45;89.43
8318;BME280;4196;48.926;8.964;2023-04-04T03:14:37;99877.22;;;-2.46;89.92
8318;BME280;4196;48.926;8.964;2023-04-04T03:17:24;99871.19;;;-2.61;91.85
8318;BME280;4196;48.926;8.964;2023-04-04T03:20:12;99876.06;;;-2.64;92.84
8318;BME280;4196;48.926;8.964;2023-04-04T03:22:59;99865.06;;;-2.78;93.73
8318;BME280;4196;48.926;8.964;2023-04-04T03:25:45;99882.50;;;-2.56;92.85
8318;BME280;4196;48.926;8.964;2023-04-04T03:28:32;99882.88;;;-2.50;91.65
8318;BME280;4196;48.926;8.964;2023-04-04T03:31:20;99876.63;;;-2.55;91.79
8318;BME280;4196;48.926;8.964;2023-04-04T03:34:07;99860.09;;;-2.77;92.20
8318;BME280;4196;48.926;8.964;2023-04-04T03:36:54;99865.34;;;-2.74;93.67
8318;BME280;4196;48.926;8.964;2023-04-04T03:39:43;99882.28;;;-2.73;93.39
8318;BME280;4196;48.926;8.964;2023-04-04T03:42:33;99876.06;;;-2.78;95.47
8318;BME280;4196;48.926;8.964;2023-04-04T03:45:24;99863.78;;;-2.85;97.86
8318;BME280;4196;48.926;8.964;2023-04-04T03:48:11;99878.59;;;-2.91;100.00
8318;BME280;4196;48.926;8.964;2023-04-04T03:50:59;99881.06;;;-2.93;100.00
8318;BME280;4196;48.926;8.964;2023-04-04T03:53:45;99882.69;;;-3.06;100.00
8318;BME280;4196;48.926;8.964;2023-04-04T03:56:31;99879.00;;;-3.11;100.00
8318;BME280;4196;48.926;8.964;2023-04-04T03:59:23;99882.47;;;-3.36;100.00
8318;BME280;4196;48.926;8.964;2023-04-04T04:02:11;99851.88;;;-3.52;100.00
8318;BME280;4196;48.926;8.964;2023-04-04T04:04:57;99882.25;;;-3.39;100.00
8318;BME280;4196;48.926;8.964;2023-04-04T04:07:44;99886.00;;;-3.21;100.00
8318;BME280;4196;48.926;8.964;2023-04-04T04:10:32;99893.41;;;-3.10;100.00
8318;BME280;4196;48.926;8.964;2023-04-04T04:13:19;99887.84;;;-3.18;100.00
8318;BME280;4196;48.926;8.964;2023-04-04T04:16:06;99874.84;;;-3.49;100.00
8318;BME280;4196;48.926;8.964;2023-04-04T04:18:54;99896.97;;;-3.33;100.00
8318;BME280;4196;48.926;8.964;2023-04-04T04:21:55;99887.59;;;-3.48;100.00
8318;BME280;4196;48.926;8.964;2023-04-04T04:24:42;99889.53;;;-3.57;100.00
8318;BME280;4196;48.926;8.964;2023-04-04T04:27:29;99901.56;;;-3.66;100.00
8318;BME280;4196;48.926;8.964;2023-04-04T04:30:16;99900.34;;;-3.59;100.00
8318;BME280;4196;48.926;8.964;2023-04-04T04:33:04;99890.88;;;-3.62;100.00
8318;BME280;4196;48.926;8.964;2023-04-04T04:35:59;99896.50;;;-3.66;100.00
8318;BME280;4196;48.926;8.964;2023-04-04T04:39:00;99896.78;;;-3.75;100.00
8318;BME280;4196;48.926;8.964;2023-04-04T04:41:51;99799.56;;;-4.28;100.00
8318;BME280;4196;48.926;8.964;2023-04-04T04:44:41;99891.03;;;-3.72;100.00
8318;BME280;4196;48.926;8.964;2023-04-04T04:47:29;99898.97;;;-3.54;100.00
8318;BME280;4196;48.926;8.964;2023-04-04T04:50:16;99889.00;;;-3.65;100.00
8318;BME280;4196;48.926;8.964;2023-04-04T04:53:06;99895.31;;;-3.33;100.00
8318;BME280;4196;48.926;8.964;2023-04-04T04:55:53;99897.56;;;-3.24;100.00
8318;BME280;4196;48.926;8.964;2023-04-04T04:58:40;99893.78;;;-3.31;100.00
8318;BME280;4196;48.926;8.964;2023-04-04T05:01:29;99893.16;;;-3.40;100.00
8318;BME280;4196;48.926;8.964;2023-04-04T05:04:16;99907.41;;;-3.42;100.00
8318;BME280;4196;48.926;8.964;2023-04-04T05:07:15;99900.75;;;-3.40;100.00
8318;BME280;4196;48.926;8.964;2023-04-04T05:10:04;99911.59;;;-3.29;100.00
8318;BME280;4196;48.926;8.964;2023-04-04T05:12:51;99902.91;;;-3.33;100.00
8318;BME280;4196;48.926;8.964;2023-04-04T05:15:41;99899.81;;;-3.29;100.00
8318;BME280;4196;48.926;8.964;2023-04-04T05:18:28;99902.66;;;-3.11;100.00
8318;BME280;4196;48.926;8.964;2023-04-04T05:21:15;99909.81;;;-3.05;100.00
8318;BME280;4196;48.926;8.964;2023-04-04T05:24:03;99912.72;;;-2.99;100.00
8318;BME280;4196;48.926;8.964;2023-04-04T05:26:50;99909.00;;;-2.91;100.00
8318;BME280;4196;48.926;8.964;2023-04-04T05:29:38;99893.13;;;-2.88;100.00
8318;BME280;4196;48.926;8.964;2023-04-04T05:32:25;99911.25;;;-2.56;100.00
8318;BME280;4196;48.926;8.964;2023-04-04T05:35:21;99902.34;;;-2.36;100.00
8318;BME280;4196;48.926;8.964;2023-04-04T05:38:08;99905.06;;;-2.20;100.00
8318;BME280;4196;48.926;8.964;2023-04-04T05:40:55;99910.38;;;-2.02;100.00
8318;BME280;4196;48.926;8.964;2023-04-04T05:43:43;99913.38;;;-1.94;100.00
8318;BME280;4196;48.926;8.964;2023-04-04T05:46:33;99923.38;;;-1.82;100.00
8318;BME280;4196;48.926;8.964;2023-04-04T05:49:20;99915.28;;;-1.77;100.00
8318;BME280;4196;48.926;8.964;2023-04-04T05:52:13;99912.13;;;-1.73;100.00
8318;BME280;4196;48.926;8.964;2023-04-04T05:55:01;99915.19;;;-1.63;100.00
8318;BME280;4196;48.926;8.964;2023-04-04T05:57:50;99918.13;;;-1.57;100.00
8318;BME280;4196;48.926;8.964;2023-04-04T06:00:43;99910.59;;;-1.41;100.00
8318;BME280;4196;48.926;8.964;2023-04-04T06:03:30;99907.44;;;-1.37;98.47
8318;BME280;4196;48.926;8.964;2023-04-04T06:06:18;99894.25;;;-1.16;94.67
8318;BME280;4196;48.926;8.964;2023-04-04T06:09:07;99924.03;;;-0.84;94.00
8318;BME280;4196;48.926;8.964;2023-04-04T06:11:54;99920.94;;;-0.79;93.54
8318;BME280;4196;48.926;8.964;2023-04-04T06:14:41;99924.78;;;-0.70;88.16
8318;BME280;4196;48.926;8.964;2023-04-04T06:17:28;99925.31;;;-0.61;88.45
8318;BME280;4196;48.926;8.964;2023-04-04T06:20:15;99911.88;;;-0.44;88.04
8318;BME280;4196;48.926;8.964;2023-04-04T06:23:04;99911.69;;;-0.47;87.20
8318;BME280;4196;48.926;8.964;2023-04-04T06:25:54;99919.97;;;-0.35;87.20
8318;BME280;4196;48.926;8.964;2023-04-04T06:28:51;99924.78;;;-0.25;88.20
8318;BME280;4196;48.926;8.964;2023-04-04T06:31:44;99914.66;;;-0.39;87.16
8318;BME280;4196;48.926;8.964;2023-04-04T06:34:37;99929.94;;;-0.23;85.47
8318;BME280;4196;48.926;8.964;2023-04-04T06:37:25;99898.00;;;-0.49;85.96
8318;BME280;4196;48.926;8.964;2023-04-04T06:40:18;99904.69;;;-0.51;84.75
8318;BME280;4196;48.926;8.964;2023-04-04T06:43:05;99899.44;;;-0.38;83.22
8318;BME280;4196;48.926;8.964;2023-04-04T06:45:58;99905.69;;;-0.33;85.07
8318;BME280;4196;48.926;8.964;2023-04-04T06:48:44;99906.66;;;-0.14;83.87
8318;BME280;4196;48.926;8.964;2023-04-04T06:51:32;99903.00;;;-0.19;82.60
8318;BME280;4196;48.926;8.964;2023-04-04T06:54:19;99882.47;;;-0.22;80.17
8318;BME280;4196;48.926;8.964;2023-04-04T06:57:05;99907.31;;;-0.18;78.80
8318;BME280;4196;48.926;8.964;2023-04-04T06:59:52;99914.66;;;0.08;79.60
8318;BME280;4196;48.926;8.964;2023-04-04T07:02:39;99914.72;;;0.10;80.13
8318;BME280;4196;48.926;8.964;2023-04-04T07:05:26;99917.69;;;0.34;78.03
8318;BME280;4196;48.926;8.964;2023-04-04T07:08:13;99904.31;;;0.38;79.98
8318;BME280;4196;48.926;8.964;2023-04-04T07:11:00;99911.63;;;0.48;78.40
8318;BME280;4196;48.926;8.964;2023-04-04T07:13:46;99893.84;;;0.50;75.69
8318;BME280;4196;48.926;8.964;2023-04-04T07:16:33;99907.47;;;0.66;74.97
8318;BME280;4196;48.926;8.964;2023-04-04T07:19:22;99901.25;;;0.61;76.32
8318;BME280;4196;48.926;8.964;2023-04-04T07:22:09;99917.78;;;0.86;75.79
8318;BME280;4196;48.926;8.964;2023-04-04T07:24:59;99914.72;;;0.93;72.02
8318;BME280;4196;48.926;8.964;2023-04-04T07:27:46;99917.72;;;1.02;71.25
8318;BME280;4196;48.926;8.964;2023-04-04T07:30:32;99895.41;;;0.98;69.55
8318;BME280;4196;48.926;8.964;2023-04-04T07:33:19;99900.47;;;1.14;70.04
8318;BME280;4196;48.926;8.964;2023-04-04T07:36:06;99911.03;;;1.40;69.76
8318;BME280;4196;48.926;8.964;2023-04-04T07:38:53;99874.88;;;1.31;67.84
8318;BME280;4196;48.926;8.964;2023-04-04T07:41:40;99888.91;;;1.58;66.43
8318;BME280;4196;48.926;8.964;2023-04-04T07:44:27;99885.22;;;1.52;65.47
8318;BME280;4196;48.926;8.964;2023-04-04T07:47:14;99900.41;;;1.86;66.10
8318;BME280;4196;48.926;8.964;2023-04-04T07:50:01;99902.25;;;2.08;61.37
8318;BME280;4196;48.926;8.964;2023-04-04T07:52:51;99877.59;;;1.71;59.24
8318;BME280;4196;48.926;8.964;2023-04-04T07:55:37;99900.47;;;1.87;60.02
8318;BME280;4196;48.926;8.964;2023-04-04T07:58:24;99896.84;;;1.82;60.04
8318;BME280;4196;48.926;8.964;2023-04-04T08:01:10;99882.38;;;1.83;59.50
8318;BME280;4196;48.926;8.964;2023-04-04T08:03:57;99897.38;;;1.94;59.74
8318;BME280;4196;48.926;8.964;2023-04-04T08:06:44;99868.94;;;1.87;58.84
8318;BME280;4196;48.926;8.964;2023-04-04T08:09:30;99888.22;;;2.17;58.64
8318;BME280;4196;48.926;8.964;2023-04-04T08:12:19;99883.88;;;2.16;57.34
8318;BME280;4196;48.926;8.964;2023-04-04T08:15:06;99889.28;;;2.23;56.86
8318;BME280;4196;48.926;8.964;2023-04-04T08:17:53;99887.72;;;2.46;56.38
8318;BME280;4196;48.926;8.964;2023-04-04T08:20:41;99890.03;;;2.39;56.37
8318;BME280;4196;48.926;8.964;2023-04-04T08:23:28;99889.94;;;2.38;57.15
8318;BME280;4196;48.926;8.964;2023-04-04T08:26:15;99893.97;;;2.52;54.89
8318;BME280;4196;48.926;8.964;2023-04-04T08:29:02;99875.38;;;2.56;56.61
8318;BME280;4196;48.926;8.964;2023-04-04T08:31:48;99887.25;;;2.75;57.32
8318;BME280;4196;48.926;8.964;2023-04-04T08:34:35;99876.56;;;2.84;56.46
8318;BME280;4196;48.926;8.964;2023-04-04T08:37:22;99884.72;;;2.96;55.76
8318;BME280;4196;48.926;8.964;2023-04-04T08:40:09;99885.03;;;3.04;55.63
8318;BME280;4196;48.926;8.964;2023-04-04T08:42:56;99885.81;;;3.24;57.14
8318;BME280;4196;48.926;8.964;2023-04-04T08:45:44;99846.63;;;3.02;53.75
8318;BME280;4196;48.926;8.964;2023-04-04T08:48:32;99886.50;;;3.20;54.63
8318;BME280;4196;48.926;8.964;2023-04-04T08:51:19;99888.16;;;3.18;53.48
8318;BME280;4196;48.926;8.964;2023-04-04T08:54:08;99889.47;;;3.08;53.99
8318;BME280;4196;48.926;8.964;2023-04-04T08:56:56;99886.59;;;3.21;54.22
8318;BME280;4196;48.926;8.964;2023-04-04T08:59:43;99889.59;;;3.32;52.63
8318;BME280;4196;48.926;8.964;2023-04-04T09:02:41;99892.84;;;3.28;53.19
8318;BME280;4196;48.926;8.964;2023-04-04T09:05:29;99886.91;;;3.29;55.93
8318;BME280;4196;48.926;8.964;2023-04-04T09:08:16;99889.34;;;3.48;56.02
8318;BME280;4196;48.926;8.964;2023-04-04T09:11:04;99880.25;;;3.34;53.48
8318;BME280;4196;48.926;8.964;2023-04-04T09:13:53;99890.81;;;3.64;51.81
8318;BME280;4196;48.926;8.964;2023-04-04T09:16:42;99886.91;;;3.51;52.39
8318;BME280;4196;48.926;8.964;2023-04-04T09:19:29;99889.38;;;3.27;50.94
8318;BME280;4196;48.926;8.964;2023-04-04T09:22:16;99880.41;;;3.16;51.21
8318;BME280;4196;48.926;8.964;2023-04-04T09:25:06;99880.59;;;3.21;49.09
8318;BME280;4196;48.926;8.964;2023-04-04T09:27:53;99892.59;;;3.22;50.42
8318;BME280;4196;48.926;8.964;2023-04-04T09:30:41;99873.03;;;3.24;50.92
8318;BME280;4196;48.926;8.964;2023-04-04T09:33:30;99889.09;;;3.42;53.68
8318;BME280;4196;48.926;8.964;2023-04-04T09:36:17;99883.22;;;3.66;52.49
8318;BME280;4196;48.926;8.964;2023-04-04T09:39:03;99890.63;;;4.04;50.10
8318;BME280;4196;48.926;8.964;2023-04-04T09:41:51;99885.25;;;4.21;48.55
8318;BME280;4196;48.926;8.964;2023-04-04T09:44:41;99881.22;;;4.27;48.41
8318;BME280;4196;48.926;8.964;2023-04-04T09:47:28;99884.19;;;4.16;48.30
8318;BME280;4196;48.926;8.964;2023-04-04T09:50:21;99882.41;;;4.37;48.72
8318;BME280;4196;48.926;8.964;2023-04-04T09:53:15;99878.84;;;4.57;50.14
8318;BME280;4196;48.926;8.964;2023-04-04T09:56:02;99890.53;;;4.75;49.97
8318;BME280;4196;48.926;8.964;2023-04-04T09:58:48;99880.69;;;4.62;47.83
8318;BME280;4196;48.926;8.964;2023-04-04T10:01:48;99872.28;;;4.66;49.25
8318;BME280;4196;48.926;8.964;2023-04-04T10:04:37;99881.84;;;4.70;49.40
8318;BME280;4196;48.926;8.964;2023-04-04T10:07:25;99881.59;;;4.64;45.73
8318;BME280;4196;48.926;8.964;2023-04-04T10:10:13;99874.63;;;4.59;46.53
8318;BME280;4196;48.926;8.964;2023-04-04T10:13:01;99884.75;;;4.80;50.19
8318;BME280;4196;48.926;8.964;2023-04-04T10:15:50;99881.84;;;4.70;47.02
8318;BME280;4196;48.926;8.964;2023-04-04T10:18:37;99883.56;;;4.71;47.05
8318;BME280;4196;48.926;8.964;2023-04-04T10:21:26;99870.97;;;4.77;46.99
8318;BME280;4196;48.926;8.964;2023-04-04T10:24:13;99872.50;;;4.97;49.48
8318;BME280;4196;48.926;8.964;2023-04-04T10:27:00;99866.66;;;5.28;48.89
8318;BME280;4196;48.926;8.964;2023-04-04T10:29:48;99868.72;;;5.40;46.96
8318;BME280;4196;48.926;8.964;2023-04-04T10:35:40;99853.69;;;5.52;46.56
8318;BME280;4196;48.926;8.964;2023-04-04T10:38:37;99858.16;;;5.60;45.85
8318;BME280;4196;48.926;8.964;2023-04-04T10:41:30;99841.94;;;5.61;46.23
8318;BME280;4196;48.926;8.964;2023-04-04T10:44:37;99860.91;;;5.64;47.06
8318;BME280;4196;48.926;8.964;2023-04-04T10:47:25;99861.13;;;5.43;44.28
8318;BME280;4196;48.926;8.964;2023-04-04T10:50:14;99846.63;;;5.45;46.49
8318;BME280;4196;48.926;8.964;2023-04-04T10:53:01;99856.91;;;5.45;45.11
8318;BME280;4196;48.926;8.964;2023-04-04T10:55:50;99847.91;;;5.31;43.60
8318;BME280;4196;48.926;8.964;2023-04-04T10:58:40;99851.06;;;5.51;47.67
8318;BME280;4196;48.926;8.964;2023-04-04T11:01:59;99850.31;;;5.53;44.36
8318;BME280;4196;48.926;8.964;2023-04-04T11:04:46;99846.75;;;5.78;45.94
8318;BME280;4196;48.926;8.964;2023-04-04T11:07:34;99828.81;;;5.80;45.40
8318;BME280;4196;48.926;8.964;2023-04-04T11:10:29;99840.03;;;5.84;44.08
8318;BME280;4196;48.926;8.964;2023-04-04T11:13:27;99840.88;;;5.82;46.71
8318;BME280;4196;48.926;8.964;2023-04-04T11:16:17;99843.06;;;5.97;44.41
8318;BME280;4196;48.926;8.964;2023-04-04T11:19:06;99840.59;;;6.02;43.59
8318;BME280;4196;48.926;8.964;2023-04-04T11:21:56;99825.50;;;5.84;43.35
8318;BME280;4196;48.926;8.964;2023-04-04T11:24:42;99812.44;;;5.76;43.96
8318;BME280;4196;48.926;8.964;2023-04-04T11:27:29;99838.16;;;5.78;44.07
8318;BME280;4196;48.926;8.964;2023-04-04T11:30:16;99821.94;;;5.79;43.61
8318;BME280;4196;48.926;8.964;2023-04-04T11:33:02;99825.19;;;6.02;44.86
8318;BME280;4196;48.926;8.964;2023-04-04T11:35:57;99792.38;;;5.93;42.83
8318;BME280;4196;48.926;8.964;2023-04-04T11:38:47;99832.31;;;6.12;44.48
8318;BME280;4196;48.926;8.964;2023-04-04T11:41:54;99832.69;;;5.94;43.35
8318;BME280;4196;48.926;8.964;2023-04-04T11:47:45;99807.19;;;5.73;42.99
8318;BME280;4196;48.926;8.964;2023-04-04T11:50:38;99809.53;;;5.94;44.12
8318;BME280;4196;48.926;8.964;2023-04-04T11:53:24;99819.16;;;6.33;46.04
8318;BME280;4196;48.926;8.964;2023-04-04T11:56:14;99813.13;;;6.31;44.38
8318;BME280;4196;48.926;8.964;2023-04-04T11:59:05;99813.22;;;6.34;42.01
8318;BME280;4196;48.926;8.964;2023-04-04T12:01:58;99792.84;;;6.10;41.93
8318;BME280;4196;48.926;8.964;2023-04-04T12:04:46;99792.38;;;6.25;43.90
8318;BME280;4196;48.926;8.964;2023-04-04T12:07:33;99793.78;;;6.45;41.35
8318;BME280;4196;48.926;8.964;2023-04-04T12:10:21;99779.28;;;6.49;42.07
8318;BME280;4196;48.926;8.964;2023-04-04T12:13:08;99774.41;;;6.60;41.79
8318;BME280;4196;48.926;8.964;2023-04-04T12:15:55;99783.91;;;6.98;42.00
8318;BME280;4196;48.926;8.964;2023-04-04T12:18:43;99773.91;;;6.74;42.05
8318;BME280;4196;48.926;8.964;2023-04-04T12:21:30;99790.59;;;6.90;42.02
8318;BME280;4196;48.926;8.964;2023-04-04T12:24:19;99764.13;;;6.60;42.90
8318;BME280;4196;48.926;8.964;2023-04-04T12:27:05;99781.06;;;6.86;43.02
8318;BME280;4196;48.926;8.964;2023-04-04T12:29:53;99796.16;;;7.09;42.65
8318;BME280;4196;48.926;8.964;2023-04-04T12:32:45;99764.47;;;7.11;41.31
8318;BME280;4196;48.926;8.964;2023-04-04T12:35:36;99791.50;;;7.30;40.42
8318;BME280;4196;48.926;8.964;2023-04-04T12:38:23;99783.69;;;7.25;39.18
8318;BME280;4196;48.926;8.964;2023-04-04T12:41:16;99761.34;;;6.88;40.76
8318;BME280;4196;48.926;8.964;2023-04-04T12:44:04;99773.09;;;7.13;42.16
8318;BME280;4196;48.926;8.964;2023-04-04T12:46:51;99759.56;;;7.22;42.12
8318;BME280;4196;48.926;8.964;2023-04-04T12:49:38;99777.19;;;7.04;42.33
8318;BME280;4196;48.926;8.964;2023-04-04T12:52:27;99777.38;;;7.13;41.68
8318;BME280;4196;48.926;8.964;2023-04-04T12:55:20;99783.63;;;7.22;41.31
8318;BME280;4196;48.926;8.964;2023-04-04T12:58:07;99768.00;;;7.56;42.80
8318;BME280;4196;48.926;8.964;2023-04-04T13:00:58;99755.84;;;7.50;41.14
8318;BME280;4196;48.926;8.964;2023-04-04T13:03:44;99765.75;;;7.72;41.10
8318;BME280;4196;48.926;8.964;2023-04-04T13:06:31;99761.84;;;7.91;40.57
8318;BME280;4196;48.926;8.964;2023-04-04T13:09:22;99759.28;;;7.50;40.55
8318;BME280;4196;48.926;8.964;2023-04-04T13:12:09;99764.66;;;7.20;41.15
8318;BME280;4196;48.926;8.964;2023-04-04T13:15:04;99758.09;;;6.95;41.85
8318;BME280;4196;48.926;8.964;2023-04-04T13:18:12;99756.84;;;7.16;42.03
8318;BME280;4196;48.926;8.964;2023-04-04T13:20:59;99757.31;;;6.99;41.37
8318;BME280;4196;48.926;8.964;2023-04-04T13:23:46;99725.16;;;7.20;42.27
8318;BME280;4196;48.926;8.964;2023-04-04T13:26:32;99730.59;;;7.74;41.93
8318;BME280;4196;48.926;8.964;2023-04-04T13:29:19;99726.72;;;7.96;40.99
8318;BME280;4196;48.926;8.964;2023-04-04T13:32:06;99734.50;;;7.99;40.55
8318;BME280;4196;48.926;8.964;2023-04-04T13:34:53;99726.78;;;7.99;39.33
8318;BME280;4196;48.926;8.964;2023-04-04T13:37:39;99719.13;;;7.59;40.28
8318;BME280;4196;48.926;8.964;2023-04-04T13:40:26;99730.50;;;7.70;39.82
8318;BME280;4196;48.926;8.964;2023-04-04T13:43:13;99722.88;;;7.76;39.58
8318;BME280;4196;48.926;8.964;2023-04-04T13:46:00;99725.31;;;7.26;40.91
8318;BME280;4196;48.926;8.964;2023-04-04T13:48:47;99712.81;;;7.05;41.58
8318;BME280;4196;48.926;8.964;2023-04-04T13:51:34;99721.75;;;7.21;41.12
8318;BME280;4196;48.926;8.964;2023-04-04T13:54:20;99715.44;;;7.07;40.43
8318;BME280;4196;48.926;8.964;2023-04-04T13:57:07;99723.13;;;7.44;40.27
8318;BME280;4196;48.926;8.964;2023-04-04T13:59:53;99712.41;;;7.68;39.89
8318;BME280;4196;48.926;8.964;2023-04-04T14:02:42;99704.94;;;7.82;40.48
8318;BME280;4196;48.926;8.964;2023-04-04T14:05:28;99652.88;;;7.55;40.01
8318;BME280;4196;48.926;8.964;2023-04-04T14:08:15;99709.75;;;7.64;40.56
8318;BME280;4196;48.926;8.964;2023-04-04T14:11:01;99730.66;;;7.79;40.12
8318;BME280;4196;48.926;8.964;2023-04-04T14:13:48;99716.78;;;7.71;40.27
8318;BME280;4196;48.926;8.964;2023-04-04T14:16:37;99706.75;;;7.86;40.93
8318;BME280;4196;48.926;8.964;2023-04-04T14:19:24;99707.09;;;7.59;40.55
8318;BME280;4196;48.926;8.964;2023-04-04T14:22:11;99696.09;;;7.68;41.38
8318;BME280;4196;48.926;8.964;2023-04-04T14:24:57;99703.59;;;7.57;40.29
8318;BME280;4196;48.926;8.964;2023-04-04T14:27:43;99715.50;;;7.50;41.33
8318;BME280;4196;48.926;8.964;2023-04-04T14:30:30;99703.09;;;7.33;41.64
8318;BME280;4196;48.926;8.964;2023-04-04T14:33:17;99703.59;;;7.15;42.15
8318;BME280;4196;48.926;8.964;2023-04-04T14:36:03;99700.72;;;7.40;42.44
8318;BME280;4196;48.926;8.964;2023-04-04T14:38:49;99690.84;;;7.21;41.64
8318;BME280;4196;48.926;8.964;2023-04-04T14:41:36;99707.00;;;7.14;40.98
8318;BME280;4196;48.926;8.964;2023-04-04T14:44:23;99698.38;;;7.12;41.75
8318;BME280;4196;48.926;8.964;2023-04-04T14:47:10;99695.59;;;7.02;41.93
8318;BME280;4196;48.926;8.964;2023-04-04T14:49:57;99701.59;;;7.42;42.20
8318;BME280;4196;48.926;8.964;2023-04-04T14:52:44;99697.59;;;7.57;42.13
8318;BME280;4196;48.926;8.964;2023-04-04T14:55:33;99694.88;;;7.50;42.50
8318;BME280;4196;48.926;8.964;2023-04-04T14:58:19;99680.44;;;7.16;41.20
8318;BME280;4196;48.926;8.964;2023-04-04T15:01:06;99703.25;;;7.39;41.72
8318;BME280;4196;48.926;8.964;2023-04-04T15:03:53;99684.63;;;7.54;41.71
8318;BME280;4196;48.926;8.964;2023-04-04T15:06:41;99696.50;;;7.45;41.22
8318;BME280;4196;48.926;8.964;2023-04-04T15:09:28;99682.06;;;7.54;41.07
8318;BME280;4196;48.926;8.964;2023-04-04T15:12:18;99687.63;;;7.75;42.19
8318;BME280;4196;48.926;8.964;2023-04-04T15:15:05;99690.69;;;7.56;40.89
8318;BME280;4196;48.926;8.964;2023-04-04T15:17:51;99697.59;;;7.57;40.96
8318;BME280;4196;48.926;8.964;2023-04-04T15:20:38;99684.56;;;7.50;41.86
8318;BME280;4196;48.926;8.964;2023-04-04T15:23:26;99699.44;;;7.64;41.73
8318;BME280;4196;48.926;8.964;2023-04-04T15:26:12;99689.78;;;7.54;41.51
8318;BME280;4196;48.926;8.964;2023-04-04T15:28:58;99679.03;;;7.31;42.28